Time;durP1;ratioP1;P1;durP2;ratioP2;P2;SDS_P1;SDS_P2;PMS_P1;PMS_P2;Temp;Humidity;BMP_temperature;BMP_pressure;BME280_temperature;BME280_humidity;BME280_pressure;Samples;Min_cycle;Max_cycle;Signal;HPM_P1;HPM_P2
2022/01/01 00:00:12;;;;;;;;;;;;;;;9.93;49.27;99907.72;1692044;83;20150;-60
2022/01/01 00:02:42;;;;;;;;;;;;;;;10.27;48.96;99904.92;1693711;84;20132;-60
2022/01/01 00:05:09;;;;;;;;;;;;;;;10.04;49.39;99909.48;1710192;83;21169;-60
2022/01/01 00:07:36;;;;;;;;;;;;;;;10.40;48.51;99905.00;1710528;83;20160;-60
2022/01/01 00:10:03;;;;;;;;;;;;;;;9.98;48.39;99904.55;1711204;83;20148;-60
2022/01/01 00:12:30;;;;;;;;;;;;;;;9.92;48.88;99906.59;1712708;83;20125;-60
2022/01/01 00:14:56;;;;;;;;;;;;;;;9.95;48.86;99899.21;1712803;83;20428;-60
2022/01/01 00:17:22;;;;;;;;;;;;;;;10.12;48.54;99893.25;1709088;83;21107;-59
2022/01/01 00:19:50;;;;;;;;;;;;;;;9.83;49.03;99902.02;1706713;83;20275;-58
2022/01/01 00:22:17;;;;;;;;;;;;;;;9.42;49.62;99892.70;1675157;85;20102;-60
2022/01/01 00:24:45;;;;;;;;;;;;;;;9.43;49.94;99889.94;1698052;83;20173;-61
2022/01/01 00:27:12;;;;;;;;;;;;;;;9.63;49.46;99881.52;1696361;83;20897;-58
2022/01/01 00:29:38;;;;;;;;;;;;;;;9.56;49.59;99881.94;1696097;83;21272;-58
2022/01/01 00:32:06;;;;;;;;;;;;;;;9.82;49.00;99879.59;1704897;83;20121;-58
2022/01/01 00:34:34;;;;;;;;;;;;;;;9.92;49.09;99876.64;1711570;83;20148;-61
2022/01/01 00:37:03;;;;;;;;;;;;;;;8.91;50.68;99877.94;1719409;82;21198;-59
2022/01/01 00:39:32;;;;;;;;;;;;;;;8.83;51.39;99874.14;1711382;83;20154;-61
2022/01/01 00:41:59;;;;;;;;;;;;;;;8.93;51.60;99875.14;1708990;82;21114;-60
2022/01/01 00:44:26;;;;;;;;;;;;;;;8.79;52.04;99870.29;1711287;83;20156;-59
2022/01/01 00:46:53;;;;;;;;;;;;;;;9.07;52.10;99870.92;1707998;83;20351;-58
2022/01/01 00:49:20;;;;;;;;;;;;;;;8.93;52.21;99864.74;1709084;83;20102;-58
2022/01/01 00:51:47;;;;;;;;;;;;;;;9.01;52.02;99860.23;1704219;83;20434;-59
2022/01/01 00:54:14;;;;;;;;;;;;;;;8.96;52.32;99863.08;1706534;83;21238;-58
2022/01/01 00:56:41;;;;;;;;;;;;;;;9.04;51.89;99845.28;1707131;83;20501;-61
2022/01/01 00:59:07;;;;;;;;;;;;;;;8.97;52.13;99837.39;1705191;83;20207;-60
2022/01/01 01:01:33;;;;;;;;;;;;;;;8.89;51.98;99833.61;1706958;83;20117;-60
2022/01/01 01:04:00;;;;;;;;;;;;;;;8.92;52.07;99830.15;1700866;83;20451;-61
2022/01/01 01:06:29;;;;;;;;;;;;;;;9.28;51.27;99831.13;1704210;83;21101;-61
2022/01/01 01:09:00;;;;;;;;;;;;;;;9.52;50.71;99823.47;1704519;83;21223;-58
2022/01/01 01:11:27;;;;;;;;;;;;;;;9.46;50.80;99819.80;1702292;83;20212;-59
2022/01/01 01:14:06;;;;;;;;;;;;;;;9.67;50.30;99813.28;1701046;83;20198;-58
2022/01/01 01:16:27;;;;;;;;;;;;;;;9.71;49.98;99804.61;1718681;81;20088;-59
2022/01/01 01:18:55;;;;;;;;;;;;;;;9.51;50.21;99800.55;1704893;83;20711;-58
2022/01/01 01:21:23;;;;;;;;;;;;;;;9.68;50.18;99795.37;1698296;83;20140;-58
2022/01/01 01:23:51;;;;;;;;;;;;;;;9.92;49.48;99794.64;1697835;83;20153;-60
2022/01/01 01:26:17;;;;;;;;;;;;;;;9.98;49.39;99789.98;1706632;83;20173;-60
2022/01/01 01:28:50;;;;;;;;;;;;;;;9.95;49.16;99783.34;1709898;83;20153;-59
2022/01/01 01:31:12;;;;;;;;;;;;;;;9.90;49.07;99774.02;1708542;83;21533;-59
2022/01/01 01:33:39;;;;;;;;;;;;;;;9.40;49.74;99775.03;1710368;83;20991;-59
2022/01/01 01:36:06;;;;;;;;;;;;;;;9.36;50.24;99766.80;1726164;81;20107;-61
2022/01/01 01:38:36;;;;;;;;;;;;;;;9.00;51.04;99766.34;1726203;81;20314;-60
2022/01/01 01:41:01;;;;;;;;;;;;;;;9.01;51.58;99759.34;1723691;82;20808;-60
2022/01/01 01:43:30;;;;;;;;;;;;;;;8.92;51.89;99759.97;1727160;81;21115;-59
2022/01/01 01:46:04;;;;;;;;;;;;;;;9.04;51.81;99753.78;1728196;81;20157;-59
2022/01/01 01:48:28;;;;;;;;;;;;;;;9.04;51.63;99748.58;1724263;81;20141;-60
2022/01/01 01:50:56;;;;;;;;;;;;;;;9.00;51.53;99746.05;1725556;81;20239;-60
2022/01/01 01:53:22;;;;;;;;;;;;;;;9.16;51.20;99742.39;1727153;81;20161;-60
2022/01/01 01:55:49;;;;;;;;;;;;;;;9.13;51.49;99740.16;1715559;81;21086;-59
2022/01/01 01:58:18;;;;;;;;;;;;;;;9.40;50.93;99735.52;1727202;81;20428;-59
2022/01/01 02:03:13;;;;;;;;;;;;;;;9.33;50.91;99731.25;1725573;81;20264;-59
2022/01/01 02:05:41;;;;;;;;;;;;;;;9.52;50.59;99729.80;1726757;81;20106;-59
2022/01/01 02:08:11;;;;;;;;;;;;;;;9.16;51.23;99724.19;1724672;81;20102;-59
2022/01/01 02:10:37;;;;;;;;;;;;;;;9.01;51.82;99720.35;1720457;81;20205;-59
2022/01/01 02:13:22;;;;;;;;;;;;;;;8.75;52.66;99722.19;1724520;81;21034;-59
2022/01/01 02:16:10;;;;;;;;;;;;;;;9.01;52.18;99717.75;1717307;81;20211;-59
2022/01/01 02:18:13;;;;;;;;;;;;;;;9.04;52.16;99719.19;1688360;83;20430;-58
2022/01/01 02:20:41;;;;;;;;;;;;;;;8.90;52.05;99706.55;1684367;82;22314;-59
2022/01/01 02:23:11;;;;;;;;;;;;;;;9.22;51.77;99707.35;1725312;81;20256;-58
2022/01/01 02:25:35;;;;;;;;;;;;;;;9.19;51.71;99701.22;1726961;81;20193;-59
2022/01/01 02:28:02;;;;;;;;;;;;;;;9.37;51.69;99702.57;1726067;80;20808;-58
2022/01/01 02:30:28;;;;;;;;;;;;;;;9.30;51.59;99694.71;1727175;81;20103;-59
2022/01/01 02:32:54;;;;;;;;;;;;;;;9.58;51.27;99696.00;1724033;81;21099;-59
2022/01/01 02:35:21;;;;;;;;;;;;;;;9.75;51.08;99699.13;1725381;81;20242;-59
2022/01/01 02:37:47;;;;;;;;;;;;;;;9.86;50.46;99696.49;1728908;81;20324;-59
2022/01/01 02:40:16;;;;;;;;;;;;;;;9.91;50.46;99694.91;1726233;81;20115;-60
2022/01/01 02:42:43;;;;;;;;;;;;;;;10.02;50.20;99695.37;1728176;81;20130;-59
2022/01/01 02:45:11;;;;;;;;;;;;;;;10.21;49.75;99685.53;1726438;81;21140;-59
2022/01/01 02:47:38;;;;;;;;;;;;;;;10.17;49.85;99680.41;1725458;81;20190;-58
2022/01/01 02:50:05;;;;;;;;;;;;;;;9.92;49.98;99683.48;1718034;81;20099;-59
2022/01/01 02:52:33;;;;;;;;;;;;;;;9.77;50.21;99682.80;1716046;81;20083;-60
2022/01/01 02:55:01;;;;;;;;;;;;;;;9.95;49.90;99679.70;1717128;81;20145;-60
2022/01/01 02:57:31;;;;;;;;;;;;;;;10.07;49.92;99672.14;1721325;81;21165;-59
2022/01/01 02:59:57;;;;;;;;;;;;;;;9.52;50.66;99672.56;1719634;81;20173;-59
2022/01/01 03:02:23;;;;;;;;;;;;;;;9.62;50.66;99676.44;1720420;81;20153;-58
2022/01/01 03:04:50;;;;;;;;;;;;;;;9.81;50.43;99662.41;1720533;81;20765;-59
2022/01/01 03:07:19;;;;;;;;;;;;;;;9.81;50.58;99661.10;1722952;81;20212;-60
2022/01/01 03:09:45;;;;;;;;;;;;;;;9.71;50.61;99661.47;1722254;81;21131;-60
2022/01/01 03:12:13;;;;;;;;;;;;;;;9.92;50.09;99650.94;1722821;81;20177;-59
2022/01/01 03:14:40;;;;;;;;;;;;;;;10.64;48.57;99638.38;1720415;81;20086;-59
2022/01/01 03:17:07;;;;;;;;;;;;;;;10.49;48.76;99647.66;1717531;81;20097;-59
2022/01/01 03:19:33;;;;;;;;;;;;;;;10.36;48.99;99641.94;1723760;81;20235;-58
2022/01/01 03:22:00;;;;;;;;;;;;;;;10.01;50.00;99643.00;1722014;81;21131;-58
2022/01/01 03:24:27;;;;;;;;;;;;;;;10.46;49.04;99637.16;1723617;81;20527;-58
2022/01/01 03:26:53;;;;;;;;;;;;;;;10.68;48.80;99632.59;1723292;81;20083;-59
2022/01/01 03:29:21;;;;;;;;;;;;;;;10.40;48.78;99630.12;1725565;81;20177;-59
2022/01/01 03:31:48;;;;;;;;;;;;;;;10.34;49.50;99624.41;1721697;81;20124;-59
2022/01/01 03:34:14;;;;;;;;;;;;;;;10.48;49.23;99615.59;1723233;81;21128;-59
2022/01/01 03:36:40;;;;;;;;;;;;;;;10.12;49.85;99617.70;1724897;81;20412;-59
2022/01/01 03:39:08;;;;;;;;;;;;;;;10.06;50.04;99610.66;1720479;81;20144;-60
2022/01/01 03:41:35;;;;;;;;;;;;;;;10.24;49.97;99610.41;1724114;81;20269;-59
2022/01/01 03:44:04;;;;;;;;;;;;;;;10.05;49.91;99608.55;1721556;81;20224;-60
2022/01/01 03:46:30;;;;;;;;;;;;;;;9.96;50.33;99604.03;1721205;81;21518;-60
2022/01/01 03:48:56;;;;;;;;;;;;;;;9.48;51.39;99607.90;1721532;81;20134;-60
2022/01/01 03:51:22;;;;;;;;;;;;;;;9.26;51.95;99599.86;1714377;81;20476;-60
2022/01/01 03:53:49;;;;;;;;;;;;;;;9.83;51.38;99593.55;1721339;81;20185;-60
2022/01/01 03:56:17;;;;;;;;;;;;;;;9.25;51.99;99591.75;1722601;81;20095;-60
2022/01/01 03:58:44;;;;;;;;;;;;;;;9.24;52.49;99587.05;1721791;81;21200;-59
2022/01/01 04:01:11;;;;;;;;;;;;;;;9.23;52.86;99591.13;1719135;81;20513;-60
2022/01/01 04:03:38;;;;;;;;;;;;;;;9.39;52.65;99581.71;1695688;84;20527;-60
2022/01/01 04:06:04;;;;;;;;;;;;;;;9.43;52.68;99572.56;1711340;83;20173;-59
2022/01/01 04:08:37;;;;;;;;;;;;;;;9.64;52.52;99586.45;1709118;83;20204;-59
2022/01/01 04:11:04;;;;;;;;;;;;;;;9.58;52.71;99581.52;1708339;83;21206;-60
2022/01/01 04:13:30;;;;;;;;;;;;;;;9.58;52.75;99580.71;1708382;83;20195;-60
2022/01/01 04:16:00;;;;;;;;;;;;;;;9.62;52.98;99571.52;1707885;83;20237;-60
2022/01/01 04:18:37;;;;;;;;;;;;;;;9.83;52.71;99571.92;1708992;83;20156;-60
2022/01/01 04:20:58;;;;;;;;;;;;;;;9.92;52.39;99571.55;1704524;83;20256;-61
2022/01/01 04:23:25;;;;;;;;;;;;;;;9.77;52.60;99564.38;1710257;83;21129;-60
2022/01/01 04:25:52;;;;;;;;;;;;;;;9.96;52.20;99561.55;1709136;83;21153;-61
2022/01/01 04:28:21;;;;;;;;;;;;;;;9.92;52.53;99555.92;1705523;83;20470;-61
2022/01/01 04:30:47;;;;;;;;;;;;;;;10.28;51.74;99545.73;1706730;83;20186;-61
2022/01/01 04:33:14;;;;;;;;;;;;;;;10.45;51.67;99535.72;1706326;83;20246;-61
2022/01/01 04:35:40;;;;;;;;;;;;;;;10.27;51.62;99542.04;1708291;83;21151;-61
2022/01/01 04:38:14;;;;;;;;;;;;;;;10.24;52.06;99541.39;1708606;83;20175;-61
2022/01/01 04:40:35;;;;;;;;;;;;;;;10.48;51.76;99543.14;1708481;83;20179;-61
2022/01/01 04:43:01;;;;;;;;;;;;;;;10.51;51.50;99540.65;1706550;83;20205;-60
2022/01/01 04:45:27;;;;;;;;;;;;;;;10.07;52.64;99541.95;1707207;83;20200;-61
2022/01/01 04:47:53;;;;;;;;;;;;;;;10.18;52.71;99533.55;1708739;83;21592;-61
2022/01/01 04:50:20;;;;;;;;;;;;;;;10.12;52.91;99535.16;1704600;83;20255;-61
2022/01/01 04:52:48;;;;;;;;;;;;;;;9.96;53.48;99530.30;1705515;83;20161;-61
2022/01/01 04:55:14;;;;;;;;;;;;;;;10.09;52.74;99524.34;1708226;83;20124;-61
2022/01/01 04:57:44;;;;;;;;;;;;;;;9.86;53.74;99521.58;1708147;83;20306;-61
2022/01/01 05:00:12;;;;;;;;;;;;;;;10.46;52.72;99513.39;1708877;83;21202;-60
2022/01/01 05:02:39;;;;;;;;;;;;;;;10.53;52.42;99503.45;1720482;82;20115;-59
2022/01/01 05:05:07;;;;;;;;;;;;;;;10.68;52.12;99504.04;1767437;80;20086;-61
2022/01/01 05:07:34;;;;;;;;;;;;;;;10.72;51.84;99505.27;1769120;80;20121;-60
2022/01/01 05:10:01;;;;;;;;;;;;;;;11.07;51.27;99502.40;1767452;80;20190;-60
2022/01/01 05:12:27;;;;;;;;;;;;;;;10.87;51.47;99511.06;1767800;80;21199;-60
2022/01/01 05:14:53;;;;;;;;;;;;;;;10.66;51.54;99500.85;1767042;80;20231;-60
2022/01/01 05:17:19;;;;;;;;;;;;;;;10.29;53.25;99500.95;1772532;80;20219;-60
2022/01/01 05:19:46;;;;;;;;;;;;;;;10.48;52.98;99493.13;1768721;80;20281;-60
2022/01/01 05:22:15;;;;;;;;;;;;;;;10.62;53.03;99491.84;1770504;80;20171;-59
2022/01/01 05:24:41;;;;;;;;;;;;;;;10.67;52.87;99482.39;1769478;80;21135;-59
2022/01/01 05:27:09;;;;;;;;;;;;;;;10.88;52.70;99482.67;1769646;80;20090;-60
2022/01/01 05:29:35;;;;;;;;;;;;;;;10.88;52.43;99469.64;1769686;80;20230;-60
2022/01/01 05:32:02;;;;;;;;;;;;;;;10.71;52.70;99464.04;1766064;80;20115;-60
2022/01/01 05:34:29;;;;;;;;;;;;;;;10.77;53.01;99465.05;1771823;80;20366;-61
2022/01/01 05:36:56;;;;;;;;;;;;;;;10.86;52.83;99458.59;1766719;80;21145;-60
2022/01/01 05:39:22;;;;;;;;;;;;;;;11.26;51.69;99457.70;1769908;80;20430;-63
2022/01/01 05:41:52;;;;;;;;;;;;;;;11.40;51.47;99448.30;1767323;80;20254;-60
2022/01/01 05:44:16;;;;;;;;;;;;;;;10.81;52.34;99450.59;1765947;80;21620;-60
2022/01/01 05:46:43;;;;;;;;;;;;;;;10.69;53.10;99449.63;1769250;80;20402;-60
2022/01/01 05:49:09;;;;;;;;;;;;;;;10.80;53.24;99445.09;1764760;80;21067;-59
2022/01/01 05:51:35;;;;;;;;;;;;;;;10.82;53.68;99437.05;1769840;80;20489;-59
2022/01/01 05:54:02;;;;;;;;;;;;;;;10.45;54.63;99435.41;1768513;80;20221;-60
2022/01/01 05:56:28;;;;;;;;;;;;;;;10.84;54.46;99422.03;1769260;80;20243;-60
2022/01/01 05:58:54;;;;;;;;;;;;;;;10.99;53.46;99413.96;1767154;80;20282;-60
2022/01/01 06:01:21;;;;;;;;;;;;;;;10.88;54.16;99413.58;1769564;80;21122;-59
2022/01/01 06:03:50;;;;;;;;;;;;;;;10.90;54.51;99405.03;1768320;80;20097;-59
2022/01/01 06:06:19;;;;;;;;;;;;;;;10.93;54.45;99400.72;1768255;79;20516;-59
2022/01/01 06:08:47;;;;;;;;;;;;;;;10.93;54.87;99400.72;1770903;80;20215;-59
2022/01/01 06:11:13;;;;;;;;;;;;;;;10.93;55.43;99404.63;1767673;80;20400;-59
2022/01/01 06:13:40;;;;;;;;;;;;;;;11.42;54.21;99399.30;1769402;80;21169;-59
2022/01/01 06:16:06;;;;;;;;;;;;;;;11.41;53.98;99399.52;1768330;80;20122;-59
2022/01/01 06:18:32;;;;;;;;;;;;;;;11.81;52.98;99396.14;1768577;80;20149;-60
2022/01/01 06:21:02;;;;;;;;;;;;;;;11.64;53.42;99388.54;1764691;80;20149;-59
2022/01/01 06:23:28;;;;;;;;;;;;;;;11.63;53.62;99390.36;1769346;80;20442;-59
2022/01/01 06:25:54;;;;;;;;;;;;;;;11.51;54.23;99392.02;1766813;80;21069;-59
2022/01/01 06:28:21;;;;;;;;;;;;;;;11.32;54.91;99392.42;1762197;80;20120;-60
2022/01/01 06:30:47;;;;;;;;;;;;;;;11.42;55.55;99385.45;1763835;80;20096;-60
2022/01/01 06:33:16;;;;;;;;;;;;;;;11.61;54.92;99387.65;1768693;80;20197;-60
2022/01/01 06:35:48;;;;;;;;;;;;;;;11.60;55.26;99379.02;1768624;80;20157;-60
2022/01/01 06:38:16;;;;;;;;;;;;;;;11.81;54.96;99375.76;1766044;80;20163;-60
2022/01/01 06:40:44;;;;;;;;;;;;;;;12.09;54.27;99375.38;1733257;82;20118;-60
2022/01/01 06:43:12;;;;;;;;;;;;;;;11.85;54.15;99369.13;1768054;80;20241;-61
2022/01/01 06:45:38;;;;;;;;;;;;;;;12.13;54.44;99364.28;1767124;80;20108;-61
2022/01/01 06:48:04;;;;;;;;;;;;;;;11.68;55.94;99361.00;1761650;79;20420;-62
2022/01/01 06:50:32;;;;;;;;;;;;;;;11.71;56.73;99355.36;1768627;80;21134;-63
2022/01/01 06:52:58;;;;;;;;;;;;;;;11.59;58.17;99347.89;1765503;80;20163;-65
2022/01/01 06:55:24;;;;;;;;;;;;;;;11.72;58.25;99346.51;1769050;80;20119;-64
2022/01/01 06:57:50;;;;;;;;;;;;;;;11.76;58.37;99341.66;1765568;80;21459;-62
2022/01/01 07:00:17;;;;;;;;;;;;;;;12.07;57.67;99331.68;1767557;80;20120;-61
2022/01/01 07:02:45;;;;;;;;;;;;;;;11.27;60.75;99331.45;1741359;80;22179;-60
2022/01/01 07:05:12;;;;;;;;;;;;;;;11.64;60.68;99326.69;1725002;82;20104;-61
2022/01/01 07:07:40;;;;;;;;;;;;;;;11.92;60.02;99324.17;1696598;84;20207;-63
2022/01/01 07:10:10;;;;;;;;;;;;;;;11.77;60.05;99323.67;1711579;83;20079;-64
2022/01/01 07:12:37;;;;;;;;;;;;;;;11.68;60.75;99319.23;1712664;83;20162;-66
2022/01/01 07:15:04;;;;;;;;;;;;;;;11.52;60.41;99322.37;1710507;83;21135;-65
2022/01/01 07:17:30;;;;;;;;;;;;;;;11.73;60.96;99309.45;1715452;83;20453;-64
2022/01/01 07:19:56;;;;;;;;;;;;;;;11.86;60.59;99315.40;1711328;83;20139;-66
2022/01/01 07:22:23;;;;;;;;;;;;;;;11.88;61.25;99308.13;1714444;82;20125;-66
2022/01/01 07:24:50;;;;;;;;;;;;;;;11.83;61.21;99307.98;1712566;83;20180;-65
2022/01/01 07:27:20;;;;;;;;;;;;;;;11.93;61.45;99309.61;1713999;83;22093;-62
2022/01/01 07:29:47;;;;;;;;;;;;;;;12.13;60.01;99309.94;1713611;83;20183;-63
2022/01/01 07:32:13;;;;;;;;;;;;;;;12.62;57.55;99296.44;1712638;83;20154;-63
2022/01/01 07:34:39;;;;;;;;;;;;;;;12.89;56.29;99295.08;1714602;82;21232;-68
2022/01/01 07:37:06;;;;;;;;;;;;;;;13.22;55.01;99288.59;1711485;83;20154;-63
2022/01/01 07:39:32;;;;;;;;;;;;;;;12.85;55.58;99291.31;1713110;83;21126;-65
2022/01/01 07:41:59;;;;;;;;;;;;;;;12.90;55.59;99297.97;1708918;83;20140;-68
2022/01/01 07:44:26;;;;;;;;;;;;;;;13.05;55.03;99279.78;1714005;83;20108;-65
2022/01/01 07:46:55;;;;;;;;;;;;;;;13.09;54.95;99275.69;1713408;82;20968;-63
2022/01/01 07:49:22;;;;;;;;;;;;;;;13.02;54.94;99268.45;1707096;83;20155;-63
2022/01/01 07:51:48;;;;;;;;;;;;;;;12.99;55.42;99270.19;1713304;83;21804;-64
2022/01/01 07:54:14;;;;;;;;;;;;;;;13.10;54.45;99268.91;1713956;83;20105;-65
2022/01/01 07:56:41;;;;;;;;;;;;;;;13.33;53.98;99263.00;1712189;83;20422;-64
2022/01/01 07:59:07;;;;;;;;;;;;;;;13.13;54.42;99265.86;1711924;83;20201;-64
2022/01/01 08:01:35;;;;;;;;;;;;;;;13.34;54.54;99254.63;1714790;82;20096;-64
2022/01/01 08:04:02;;;;;;;;;;;;;;;13.35;54.39;99249.16;1723655;82;21147;-63
2022/01/01 08:06:32;;;;;;;;;;;;;;;12.80;56.10;99245.91;1724383;82;20433;-64
2022/01/01 08:08:58;;;;;;;;;;;;;;;12.28;57.95;99235.91;1722739;82;20219;-64
2022/01/01 08:11:24;;;;;;;;;;;;;;;12.62;58.79;99234.48;1724607;82;20187;-66
2022/01/01 08:13:52;;;;;;;;;;;;;;;12.80;58.20;99217.93;1722775;82;20211;-64
2022/01/01 08:16:19;;;;;;;;;;;;;;;13.08;57.69;99211.31;1726109;82;21148;-65
2022/01/01 08:18:45;;;;;;;;;;;;;;;12.87;57.96;99206.08;1725560;82;20088;-65
2022/01/01 08:21:13;;;;;;;;;;;;;;;12.96;57.83;99203.44;1727649;82;20420;-65
2022/01/01 08:23:40;;;;;;;;;;;;;;;12.50;60.10;99193.61;1716274;82;20112;-65
2022/01/01 08:26:08;;;;;;;;;;;;;;;12.49;61.43;99186.80;1723262;82;21201;-66
2022/01/01 08:28:35;;;;;;;;;;;;;;;12.68;60.89;99185.72;1720896;82;21601;-64
2022/01/01 08:31:06;;;;;;;;;;;;;;;12.98;59.46;99177.84;1720998;82;20216;-65
2022/01/01 08:33:34;;;;;;;;;;;;;;;12.94;58.48;99170.67;1725373;82;20127;-64
2022/01/01 08:36:03;;;;;;;;;;;;;;;12.50;60.34;99165.68;1720197;82;20215;-65
2022/01/01 08:38:31;;;;;;;;;;;;;;;12.28;62.89;99160.13;1725651;82;20088;-66
2022/01/01 08:40:58;;;;;;;;;;;;;;;12.07;65.87;99163.20;1723720;82;21079;-67
2022/01/01 08:43:25;;;;;;;;;;;;;;;12.21;65.69;99150.27;1725778;81;21185;-66
2022/01/01 08:45:51;;;;;;;;;;;;;;;11.96;66.90;99139.13;1723801;82;20203;-66
2022/01/01 08:48:17;;;;;;;;;;;;;;;11.73;70.32;99135.84;1731869;82;20340;-65
2022/01/01 08:50:43;;;;;;;;;;;;;;;12.03;69.19;99138.03;1731834;82;21032;-66
2022/01/01 08:53:10;;;;;;;;;;;;;;;12.60;65.90;99126.70;1729474;82;22463;-65
2022/01/01 08:55:36;;;;;;;;;;;;;;;12.22;66.37;99127.55;1732592;82;20182;-66
2022/01/01 08:58:04;;;;;;;;;;;;;;;12.35;65.75;99122.95;1727018;82;20349;-66
2022/01/01 09:00:32;;;;;;;;;;;;;;;12.53;65.28;99112.94;1733616;82;20412;-66
2022/01/01 09:02:59;;;;;;;;;;;;;;;12.75;63.99;99101.96;1724340;82;20160;-67
2022/01/01 09:05:26;;;;;;;;;;;;;;;12.90;63.05;99104.42;1713984;82;21094;-64
2022/01/01 09:07:54;;;;;;;;;;;;;;;13.24;61.45;99106.52;1714334;83;20540;-63
2022/01/01 09:10:23;;;;;;;;;;;;;;;12.97;62.28;99104.83;1713567;82;20274;-64
2022/01/01 09:12:51;;;;;;;;;;;;;;;12.93;61.93;99106.31;1716747;83;20128;-64
2022/01/01 09:15:20;;;;;;;;;;;;;;;12.94;62.43;99098.74;1716393;82;20222;-64
2022/01/01 09:17:48;;;;;;;;;;;;;;;13.10;61.78;99096.75;1717291;82;20552;-64
2022/01/01 09:20:14;;;;;;;;;;;;;;;13.32;60.70;99097.00;1716653;83;21136;-63
2022/01/01 09:22:42;;;;;;;;;;;;;;;13.17;60.71;99086.97;1716593;83;20191;-62
2022/01/01 09:25:10;;;;;;;;;;;;;;;12.43;64.83;99084.46;1716460;83;20858;-65
2022/01/01 09:27:37;;;;;;;;;;;;;;;12.54;66.28;99081.05;1716649;82;20477;-63
2022/01/01 09:30:04;;;;;;;;;;;;;;;12.76;64.40;99066.94;1764510;81;21101;-62
2022/01/01 09:32:30;;;;;;;;;;;;;;;12.85;65.32;99066.91;1763420;81;20140;-64
2022/01/01 09:34:57;;;;;;;;;;;;;;;12.85;64.19;99066.91;1764095;81;20342;-63
2022/01/01 09:37:25;;;;;;;;;;;;;;;12.37;69.50;99069.94;1763888;80;20433;-65
2022/01/01 09:39:51;;;;;;;;;;;;;;;12.60;70.04;99061.87;1763913;81;20235;-65
2022/01/01 09:42:17;;;;;;;;;;;;;;;12.82;66.55;99056.37;1764051;81;21114;-61
2022/01/01 09:44:44;;;;;;;;;;;;;;;13.08;64.86;99043.36;1759819;81;20266;-62
2022/01/01 09:47:10;;;;;;;;;;;;;;;13.05;64.86;99041.19;1764442;80;20688;-61
2022/01/01 09:49:38;;;;;;;;;;;;;;;12.98;65.10;99031.36;1763209;81;20133;-61
2022/01/01 09:52:09;;;;;;;;;;;;;;;12.83;65.87;99025.78;1759264;81;20661;-67
2022/01/01 09:54:36;;;;;;;;;;;;;;;12.88;66.42;99016.25;1760257;81;21109;-63
2022/01/01 09:57:04;;;;;;;;;;;;;;;13.28;63.24;99017.36;1759141;81;20460;-61
2022/01/01 09:59:31;;;;;;;;;;;;;;;13.36;62.12;99003.39;1760308;81;20176;-62
2022/01/01 10:01:58;;;;;;;;;;;;;;;13.64;59.94;99001.85;1758651;81;20546;-60
2022/01/01 10:04:24;;;;;;;;;;;;;;;13.63;60.28;99008.09;1759898;80;20425;-63
2022/01/01 10:07:04;;;;;;;;;;;;;;;13.59;60.32;98995.98;1758458;81;21177;-60
2022/01/01 10:09:33;;;;;;;;;;;;;;;14.18;57.92;98989.69;1757262;81;20125;-61
2022/01/01 10:12:00;;;;;;;;;;;;;;;14.05;57.47;98999.45;1752016;80;20167;-61
2022/01/01 10:14:36;;;;;;;;;;;;;;;13.99;56.91;98999.59;1754188;81;20195;-60
2022/01/01 10:17:13;;;;;;;;;;;;;;;14.00;56.97;98988.07;1749757;81;20226;-62
2022/01/01 10:19:42;;;;;;;;;;;;;;;13.68;58.00;98983.34;1755713;81;20188;-59
2022/01/01 10:22:13;;;;;;;;;;;;;;;13.43;59.41;98981.02;1756804;81;20170;-59
2022/01/01 10:30:09;;;;;;;;;;;;;;;13.21;60.32;98983.44;1755909;81;20237;-62
2022/01/01 10:32:39;;;;;;;;;;;;;;;12.88;61.67;98978.33;1758567;81;21802;-61
2022/01/01 10:35:06;;;;;;;;;;;;;;;13.24;60.75;98966.00;1756993;80;20162;-60
2022/01/01 10:37:32;;;;;;;;;;;;;;;13.30;60.31;98972.94;1760349;81;20116;-60
2022/01/01 10:39:59;;;;;;;;;;;;;;;12.98;61.79;98979.55;1754658;81;20154;-60
2022/01/01 10:42:25;;;;;;;;;;;;;;;12.95;62.19;98971.65;1761573;81;20100;-63
2022/01/01 10:44:52;;;;;;;;;;;;;;;13.14;61.73;98961.83;1757778;81;21793;-59
2022/01/01 10:47:27;;;;;;;;;;;;;;;13.02;60.42;98968.91;1760399;80;20113;-58
2022/01/01 10:50:03;;;;;;;;;;;;;;;12.66;63.76;98969.47;1756616;81;20406;-61
2022/01/01 10:52:23;;;;;;;;;;;;;;;12.81;64.08;98969.80;1755647;81;20189;-60
2022/01/01 10:54:53;;;;;;;;;;;;;;;13.20;61.29;98966.67;1759418;81;36512;-60
2022/01/01 10:57:37;;;;;;;;;;;;;;;12.90;61.89;98967.62;1759261;81;21127;-62
2022/01/01 11:00:08;;;;;;;;;;;;;;;13.08;60.87;98955.72;1761797;80;20260;-62
2022/01/01 11:02:36;;;;;;;;;;;;;;;12.83;61.80;98957.80;1759850;80;20946;-60
2022/01/01 11:05:03;;;;;;;;;;;;;;;12.83;62.75;98954.66;1756767;81;20436;-62
2022/01/01 11:07:31;;;;;;;;;;;;;;;13.48;59.88;98959.38;1756226;80;20502;-61
2022/01/01 11:10:00;;;;;;;;;;;;;;;13.62;58.28;98954.94;1756172;81;21094;-63
2022/01/01 11:12:27;;;;;;;;;;;;;;;13.66;56.89;98956.58;1747999;80;20207;-61
2022/01/01 11:14:56;;;;;;;;;;;;;;;13.52;57.55;98956.57;1754492;81;20305;-62
2022/01/01 11:17:24;;;;;;;;;;;;;;;13.77;56.67;98961.48;1759517;80;20165;-61
2022/01/01 11:19:52;;;;;;;;;;;;;;;13.73;56.73;98961.16;1758501;80;20230;-62
2022/01/01 11:22:18;;;;;;;;;;;;;;;13.68;57.02;98966.83;1760200;80;21499;-59
2022/01/01 11:24:46;;;;;;;;;;;;;;;13.85;56.54;98962.41;1759133;81;20175;-59
2022/01/01 11:27:13;;;;;;;;;;;;;;;13.99;56.55;98956.36;1759478;81;20156;-60
2022/01/01 11:29:52;;;;;;;;;;;;;;;13.63;57.57;98966.20;1760170;80;20235;-59
2022/01/01 11:32:24;;;;;;;;;;;;;;;13.97;56.59;98959.20;1757440;81;20398;-59
2022/01/01 11:34:54;;;;;;;;;;;;;;;14.45;54.18;98953.14;1757154;81;20553;-62
2022/01/01 11:37:22;;;;;;;;;;;;;;;14.31;54.25;98942.97;1758686;80;20166;-59
2022/01/01 11:39:55;;;;;;;;;;;;;;;14.35;53.71;98942.77;1760585;80;20139;-60
2022/01/01 11:42:22;;;;;;;;;;;;;;;14.25;53.92;98938.70;1754575;81;20219;-59
2022/01/01 11:44:55;;;;;;;;;;;;;;;14.02;53.85;98931.00;1759461;80;20140;-60
2022/01/01 11:47:23;;;;;;;;;;;;;;;13.42;55.57;98936.77;1754674;81;21052;-59
2022/01/01 11:49:50;;;;;;;;;;;;;;;13.60;56.08;98939.20;1757750;80;20130;-60
2022/01/01 11:52:39;;;;;;;;;;;;;;;13.56;55.94;98935.44;1758327;81;20125;-59
2022/01/01 11:55:12;;;;;;;;;;;;;;;13.62;55.77;98944.98;1759447;80;20218;-61
2022/01/01 11:57:39;;;;;;;;;;;;;;;13.43;56.37;98946.20;1756280;81;20179;-59
2022/01/01 12:00:10;;;;;;;;;;;;;;;13.57;56.09;98951.45;1741948;80;21124;-61
2022/01/01 12:02:37;;;;;;;;;;;;;;;13.48;55.82;98957.55;1758134;81;20208;-59
2022/01/01 12:05:14;;;;;;;;;;;;;;;13.57;55.60;98959.30;1759783;81;21137;-62
2022/01/01 12:07:46;;;;;;;;;;;;;;;13.72;55.39;98959.58;1741586;80;20277;-59
2022/01/01 12:10:16;;;;;;;;;;;;;;;13.67;55.02;98955.53;1716291;82;20153;-59
2022/01/01 12:13:02;;;;;;;;;;;;;;;13.83;54.92;98955.31;1766029;80;20204;-59
2022/01/01 12:15:47;;;;;;;;;;;;;;;13.52;55.30;98963.91;1767048;81;20143;-59
2022/01/01 12:18:18;;;;;;;;;;;;;;;13.61;55.52;98960.42;1765989;81;20073;-60
2022/01/01 12:20:56;;;;;;;;;;;;;;;12.97;57.56;98968.81;1766031;81;20902;-60
2022/01/01 12:23:22;;;;;;;;;;;;;;;13.07;57.88;98975.06;1766962;80;20448;-61
2022/01/01 12:25:50;;;;;;;;;;;;;;;13.34;56.77;98972.75;1765756;81;21085;-62
2022/01/01 12:28:18;;;;;;;;;;;;;;;13.81;55.45;98967.84;1765674;81;20132;-60
2022/01/01 12:30:51;;;;;;;;;;;;;;;13.78;54.98;98969.09;1766101;80;20493;-59
2022/01/01 12:33:27;;;;;;;;;;;;;;;13.83;54.43;98970.51;1767006;81;20171;-59
2022/01/01 12:35:55;;;;;;;;;;;;;;;13.76;54.01;98971.69;1749807;80;20152;-60
2022/01/01 12:38:24;;;;;;;;;;;;;;;13.69;54.27;98966.58;1760653;81;22476;-59
2022/01/01 12:41:16;;;;;;;;;;;;;;;13.27;55.61;98969.47;1763024;80;20174;-59
2022/01/01 12:43:45;;;;;;;;;;;;;;;13.37;55.76;98970.98;1762500;81;20101;-61
2022/01/01 12:46:12;;;;;;;;;;;;;;;13.09;56.97;98966.45;1742627;81;20581;-60
2022/01/01 12:48:39;;;;;;;;;;;;;;;13.50;55.71;98969.11;1767004;81;20141;-60
2022/01/01 12:51:14;;;;;;;;;;;;;;;13.52;55.43;98971.76;1766725;81;21124;-59
2022/01/01 12:53:41;;;;;;;;;;;;;;;13.92;54.39;98960.95;1765749;81;20473;-60
2022/01/01 12:56:16;;;;;;;;;;;;;;;13.72;54.38;98961.41;1764239;81;20340;-59
2022/01/01 12:58:47;;;;;;;;;;;;;;;13.74;54.43;98954.88;1768863;80;20133;-59
2022/01/01 13:01:17;;;;;;;;;;;;;;;13.67;54.29;98962.60;1765209;81;20209;-59